Time;durP1;ratioP1;P1;durP2;ratioP2;P2;SDS_P1;SDS_P2;PMS_P1;PMS_P2;Temp;Humidity;BMP_temperature;BMP_pressure;BME280_temperature;BME280_humidity;BME280_pressure;Samples;Min_cycle;Max_cycle;Signal;HPM_P1;HPM_P2
2022/11/03 00:01:00;;;;;;;;;2.00;1.00;;;;;12.11;62.45;99935.34;5119120;28;8916;-58
2022/11/03 00:03:28;;;;;;;;;0.50;0.50;;;;;12.13;62.22;99936.03;5119895;28;8910;-57
2022/11/03 00:06:05;;;;;;;;;1.50;1.00;;;;;12.13;62.89;99930.69;5119547;28;8832;-56
2022/11/03 00:08:32;;;;;;;;;1.00;1.00;;;;;12.14;62.65;99922.56;5118355;28;8882;-56
2022/11/03 00:11:00;;;;;;;;;1.00;1.00;;;;;12.15;62.84;99923.44;5118134;28;8852;-58
2022/11/03 00:13:28;;;;;;;;;0.50;0.50;;;;;12.14;63.18;99906.56;5119099;28;8815;-58
2022/11/03 00:15:55;;;;;;;;;0.50;0.50;;;;;12.15;62.72;99907.41;5119151;28;8827;-57
2022/11/03 00:18:23;;;;;;;;;3.00;2.50;;;;;12.14;63.03;99906.56;5118775;28;8828;-58
2022/11/03 00:20:50;;;;;;;;;1.00;1.00;;;;;12.16;62.98;99914.44;5119171;28;8851;-58
2022/11/03 00:23:18;;;;;;;;;0.50;0.50;;;;;12.15;62.72;99913.56;5117992;28;9551;-59
2022/11/03 00:25:46;;;;;;;;;1.50;1.00;;;;;12.13;63.33;99912.88;5119077;28;8905;-58
2022/11/03 00:28:14;;;;;;;;;1.00;1.00;;;;;12.14;63.58;99914.56;5118246;28;8832;-59
2022/11/03 00:30:42;;;;;;;;;1.00;1.00;;;;;12.14;63.55;99908.38;5118523;28;8827;-58
2022/11/03 00:33:09;;;;;;;;;1.00;1.00;;;;;12.13;63.63;99918.22;5118587;28;8892;-59
2022/11/03 00:35:37;;;;;;;;;1.50;1.50;;;;;12.15;63.70;99918.09;5118769;28;9696;-58
2022/11/03 00:38:05;;;;;;;;;2.00;1.00;;;;;12.12;63.75;99911.19;5119222;28;8935;-58
2022/11/03 00:40:32;;;;;;;;;3.75;3.00;;;;;12.13;63.81;99914.69;5118247;28;8840;-58
2022/11/03 00:43:00;;;;;;;;;2.00;2.00;;;;;12.14;63.97;99911.03;5118000;28;8811;-58
2022/11/03 00:45:27;;;;;;;;;1.00;0.75;;;;;12.13;64.02;99918.22;5118531;28;8862;-58
2022/11/03 00:50:37;;;;;;;;;1.00;1.00;;;;;12.15;63.74;99899.41;5106187;28;8839;-58
2022/11/03 00:53:04;;;;;;;;;1.00;1.00;;;;;12.15;64.06;99899.41;5118656;28;8877;-58
2022/11/03 00:55:32;;;;;;;;;2.50;2.50;;;;;12.15;64.63;99904.75;5118471;28;8819;-59
2022/11/03 00:58:00;;;;;;;;;1.00;1.00;;;;;12.13;64.17;99899.53;5118178;28;8812;-58
2022/11/03 01:00:27;;;;;;;;;0.00;0.00;;;;;12.13;63.85;99902.19;5118516;28;8805;-59
2022/11/03 01:02:55;;;;;;;;;0.00;0.00;;;;;12.12;64.43;99900.50;5118259;28;8812;-58
2022/11/03 01:08:08;;;;;;;;;1.00;1.00;;;;;12.11;64.75;99898.81;5118166;28;8916;-58
2022/11/03 01:10:36;;;;;;;;;1.50;1.50;;;;;12.11;64.82;99897.97;5118081;28;8904;-59
2022/11/03 01:13:04;;;;;;;;;2.00;2.00;;;;;12.12;64.55;99899.66;5118355;28;8896;-59
2022/11/03 01:15:32;;;;;;;;;1.50;0.75;;;;;12.14;65.11;99895.88;5118059;28;8816;-59
2022/11/03 01:17:59;;;;;;;;;0.00;0.00;;;;;12.13;64.89;99893.31;5117400;28;8900;-59
2022/11/03 01:20:27;;;;;;;;;1.00;1.00;;;;;12.14;64.67;99895.88;5117778;28;8816;-58
2022/11/03 01:22:55;;;;;;;;;0.00;0.00;;;;;12.15;64.99;99888.72;5117961;28;8908;-59
2022/11/03 01:25:24;;;;;;;;;0.00;0.00;;;;;12.16;64.96;99887.75;5117403;28;8836;-58
2022/11/03 01:27:51;;;;;;;;;0.50;0.50;;;;;12.18;64.57;99888.44;5117098;28;8836;-58
2022/11/03 01:30:19;;;;;;;;;3.00;3.00;;;;;12.20;64.90;99886.47;5117365;28;8796;-58
2022/11/03 01:32:49;;;;;;;;;0.75;0.50;;;;;12.23;64.71;99878.22;5117393;28;8904;-58
2022/11/03 01:35:16;;;;;;;;;0.75;0.75;;;;;12.24;65.27;99874.56;5117578;28;8839;-58
2022/11/03 01:37:44;;;;;;;;;0.00;0.00;;;;;12.25;65.35;99878.94;5117428;28;8864;-59
2022/11/03 01:40:12;;;;;;;;;2.00;2.00;;;;;12.26;64.92;99880.63;5117636;28;9492;-58
2022/11/03 01:42:39;;;;;;;;;1.50;0.25;;;;;12.24;64.81;99874.56;5117899;28;8828;-58
2022/11/03 01:45:08;;;;;;;;;0.00;0.00;;;;;12.27;64.87;99882.31;5117408;28;8812;-58
2022/11/03 01:47:35;;;;;;;;;2.00;2.00;;;;;12.28;64.56;99875.97;5117198;28;8832;-58
2022/11/03 01:50:03;;;;;;;;;1.00;1.00;;;;;12.28;64.68;99863.50;5117680;28;8836;-59
2022/11/03 01:52:32;;;;;;;;;0.00;0.00;;;;;12.30;65.06;99871.38;5117032;28;8836;-58
2022/11/03 01:55:00;;;;;;;;;3.00;1.00;;;;;12.31;65.17;99854.38;5117119;28;8820;-59
2022/11/03 01:57:28;;;;;;;;;1.00;1.00;;;;;12.32;65.08;99854.22;5116865;28;8858;-58
2022/11/03 01:59:56;;;;;;;;;0.75;0.75;;;;;12.33;65.11;99855.94;5116457;28;8836;-58
2022/11/03 02:02:24;;;;;;;;;0.00;0.00;;;;;12.34;65.52;99854.09;5117272;28;8835;-59
2022/11/03 02:04:52;;;;;;;;;0.75;0.75;;;;;12.35;65.10;99853.09;5117001;28;8824;-58
2022/11/03 02:07:19;;;;;;;;;1.50;0.75;;;;;12.33;65.58;99845.25;5117037;28;8912;-58
2022/11/03 02:09:48;;;;;;;;;0.50;0.50;;;;;12.35;65.61;99842.41;5117202;28;8920;-58
2022/11/03 02:12:15;;;;;;;;;1.00;0.00;;;;;12.37;66.03;99848.47;5117174;28;8812;-59
2022/11/03 02:14:44;;;;;;;;;2.50;2.50;;;;;12.38;65.39;99844.84;5116939;28;8819;-59
2022/11/03 02:17:11;;;;;;;;;1.50;1.00;;;;;12.38;65.62;99839.50;5116607;28;8911;-59
2022/11/03 02:19:39;;;;;;;;;1.00;1.00;;;;;12.36;66.09;99834.28;5116655;28;8844;-59
2022/11/03 02:22:06;;;;;;;;;0.00;0.00;;;;;12.34;66.19;99830.06;5117129;28;8835;-58
2022/11/03 02:24:34;;;;;;;;;0.00;0.00;;;;;12.29;65.75;99817.09;5116745;28;8910;-58
2022/11/03 02:27:02;;;;;;;;;1.00;1.00;;;;;12.27;66.26;99818.22;5116832;28;8920;-58
2022/11/03 02:29:29;;;;;;;;;0.00;0.00;;;;;12.26;66.34;99805.84;5117111;28;8843;-59
2022/11/03 02:31:57;;;;;;;;;0.00;0.00;;;;;12.26;66.41;99800.50;5116462;28;8893;-59
2022/11/03 02:34:25;;;;;;;;;3.75;1.00;;;;;12.27;66.40;99803.06;5116710;28;8823;-58
2022/11/03 02:36:53;;;;;;;;;0.75;0.75;;;;;12.29;66.68;99797.56;5116456;28;8824;-59
2022/11/03 02:39:21;;;;;;;;;1.00;1.00;;;;;12.30;66.50;99796.59;5116522;28;8847;-59
2022/11/03 02:41:48;;;;;;;;;1.50;1.50;;;;;12.29;66.03;99786.88;5116869;28;8847;-59
2022/11/03 02:44:16;;;;;;;;;0.75;0.75;;;;;12.29;67.07;99792.22;5116638;28;8816;-58
2022/11/03 02:46:44;;;;;;;;;0.00;0.00;;;;;12.28;67.21;99785.19;5115733;28;8832;-59
2022/11/03 02:49:11;;;;;;;;;1.25;0.75;;;;;12.26;67.15;99788.03;5116384;28;8824;-58
2022/11/03 02:51:39;;;;;;;;;0.50;0.50;;;;;12.25;66.79;99772.97;5116808;28;8828;-59
2022/11/03 02:54:07;;;;;;;;;0.00;0.00;;;;;12.26;67.16;99779.16;5116162;28;8890;-58
2022/11/03 02:56:34;;;;;;;;;1.00;1.00;;;;;12.25;67.26;99775.63;5116272;28;8901;-58
2022/11/03 02:59:05;;;;;;;;;1.00;0.00;;;;;12.25;67.28;99764.13;5116481;28;8812;-59
2022/11/03 03:01:33;;;;;;;;;0.00;0.00;;;;;12.25;66.88;99756.13;5115937;28;8851;-58
2022/11/03 03:04:01;;;;;;;;;0.00;0.00;;;;;12.24;67.18;99755.25;5116220;28;8827;-58
2022/11/03 03:06:29;;;;;;;;;0.75;0.75;;;;;12.22;67.91;99759.03;5116377;28;8843;-59
2022/11/03 03:08:57;;;;;;;;;1.00;1.00;;;;;12.21;67.33;99750.19;5116353;28;8832;-58
2022/11/03 03:11:36;;;;;;;;;0.25;0.25;;;;;12.20;67.65;99747.66;5116010;28;8824;-59
2022/11/03 03:14:06;;;;;;;;;1.00;1.00;;;;;12.21;67.70;99749.34;5116580;28;8824;-58
2022/11/03 03:16:33;;;;;;;;;0.00;0.00;;;;;12.21;67.33;99744.00;5116205;28;8823;-58
2022/11/03 03:19:01;;;;;;;;;0.00;0.00;;;;;12.23;67.17;99744.75;5115935;28;8900;-58
2022/11/03 03:21:28;;;;;;;;;3.25;1.00;;;;;12.21;67.67;99749.34;5116161;28;8878;-57
2022/11/03 03:23:56;;;;;;;;;3.00;1.00;;;;;12.21;67.89;99738.66;5115999;28;8824;-59
2022/11/03 03:26:23;;;;;;;;;1.00;1.00;;;;;12.19;67.45;99732.63;5116621;28;8827;-58
2022/11/03 03:28:51;;;;;;;;;1.00;1.00;;;;;12.18;67.92;99729.13;5115982;28;8904;-58
2022/11/03 03:31:18;;;;;;;;;0.00;0.00;;;;;12.17;67.91;99729.25;5115955;28;8909;-59
2022/11/03 03:33:46;;;;;;;;;1.50;1.50;;;;;12.15;67.58;99721.38;5115975;28;8832;-58
2022/11/03 03:36:14;;;;;;;;;0.25;0.25;;;;;12.17;68.37;99721.25;5115915;28;9583;-58
2022/11/03 03:38:42;;;;;;;;;0.75;0.00;;;;;12.15;68.16;99728.56;5116253;28;8893;-57
2022/11/03 03:41:10;;;;;;;;;0.00;0.00;;;;;12.15;68.40;99712.53;5115952;28;8824;-58
2022/11/03 03:43:37;;;;;;;;;1.00;1.00;;;;;12.14;67.93;99726.84;5115670;28;8819;-58
2022/11/03 03:46:05;;;;;;;;;1.50;1.00;;;;;12.13;68.08;99723.34;5115938;28;8847;-58
2022/11/03 03:48:32;;;;;;;;;2.00;1.00;;;;;12.15;68.16;99724.06;5115633;28;8827;-58
2022/11/03 03:51:00;;;;;;;;;2.00;1.00;;;;;12.16;67.78;99719.56;5115760;28;8876;-59
2022/11/03 03:53:28;;;;;;;;;1.00;1.00;;;;;12.15;67.91;99712.53;5115514;28;8823;-58
2022/11/03 03:55:55;;;;;;;;;0.25;0.25;;;;;12.15;67.86;99712.53;5115298;28;8835;-58
2022/11/03 03:58:23;;;;;;;;;1.00;0.00;;;;;12.15;68.18;99701.88;5117496;28;8824;-58
2022/11/03 04:00:51;;;;;;;;;1.00;1.00;;;;;12.16;68.18;99700.88;5118852;28;8823;-58
2022/11/03 04:03:19;;;;;;;;;1.00;0.00;;;;;12.17;68.52;99710.56;5119018;28;8827;-59
2022/11/03 04:05:46;;;;;;;;;3.75;3.25;;;;;12.18;68.07;99701.56;5119244;28;8836;-58
2022/11/03 04:08:14;;;;;;;;;1.00;1.00;;;;;12.20;68.01;99699.59;5118963;28;8855;-58
2022/11/03 04:22:15;;;;;;;;;3.00;3.00;;;;;12.21;68.53;99694.13;5119270;28;8840;-59
2022/11/03 04:24:33;;;;;;;;;0.75;0.00;;;;;12.29;68.21;99678.28;5114069;28;8859;-58
2022/11/03 04:27:00;;;;;;;;;1.00;1.00;;;;;12.30;68.30;99674.63;5118975;28;8836;-58
2022/11/03 04:29:28;;;;;;;;;0.00;0.00;;;;;12.31;68.46;99670.97;5118966;28;9493;-59
2022/11/03 04:31:55;;;;;;;;;0.75;0.75;;;;;12.33;68.08;99670.81;5118580;28;8820;-59
2022/11/03 04:34:23;;;;;;;;;0.50;0.50;;;;;12.36;67.88;99667.88;5118737;28;8819;-58
2022/11/03 04:36:51;;;;;;;;;1.25;1.25;;;;;12.38;68.36;99671.25;5118994;28;8885;-58
2022/11/03 04:39:18;;;;;;;;;1.50;1.00;;;;;12.38;68.37;99669.41;5118585;28;8921;-58
2022/11/03 04:41:46;;;;;;;;;0.25;0.25;;;;;12.42;67.84;99667.31;5118576;28;9528;-58
2022/11/03 04:44:13;;;;;;;;;0.00;0.00;;;;;12.43;68.10;99663.66;5118826;28;8820;-59
2022/11/03 04:46:44;;;;;;;;;1.00;1.00;;;;;12.42;68.13;99656.63;5117986;28;8903;-59
2022/11/03 04:49:12;;;;;;;;;0.00;0.00;;;;;12.38;68.13;99661.41;5117559;28;8835;-59
2022/11/03 04:51:40;;;;;;;;;3.00;0.75;;;;;12.36;68.08;99654.50;5117374;28;8851;-59
2022/11/03 04:54:07;;;;;;;;;1.00;0.00;;;;;12.36;67.97;99652.69;5117942;28;8824;-59
2022/11/03 04:56:35;;;;;;;;;3.75;2.50;;;;;12.37;68.01;99640.16;5117781;28;8823;-58
2022/11/03 04:59:02;;;;;;;;;1.00;0.75;;;;;12.39;68.15;99644.38;5117946;28;8831;-59
2022/11/03 05:01:30;;;;;;;;;0.50;0.50;;;;;12.41;67.88;99646.94;5117839;28;8908;-59
2022/11/03 05:03:58;;;;;;;;;2.00;1.00;;;;;12.43;68.21;99636.94;5117737;28;8835;-58
2022/11/03 05:06:25;;;;;;;;;1.00;1.00;;;;;12.44;68.44;99638.63;5117738;28;8803;-58
2022/11/03 05:08:53;;;;;;;;;0.75;0.75;;;;;12.45;68.54;99635.81;5116755;28;8860;-58
2022/11/03 05:11:22;;;;;;;;;1.00;1.00;;;;;12.45;68.11;99635.81;5117513;28;8840;-58
2022/11/03 05:13:49;;;;;;;;;1.50;1.00;;;;;12.45;67.28;99629.66;5117529;28;8940;-59
2022/11/03 05:16:17;;;;;;;;;0.00;0.00;;;;;12.44;67.94;99628.81;5117152;28;8908;-58
2022/11/03 05:18:45;;;;;;;;;0.75;0.50;;;;;12.42;67.77;99625.44;5117710;28;9594;-59
2022/11/03 05:21:12;;;;;;;;;1.00;1.00;;;;;12.45;67.76;99624.31;5117287;28;9465;-59
2022/11/03 05:23:41;;;;;;;;;1.00;1.00;;;;;12.45;67.38;99624.31;5117311;28;8823;-58
2022/11/03 05:26:08;;;;;;;;;1.00;1.00;;;;;12.45;67.75;99618.97;5117564;28;8908;-59
2022/11/03 05:28:36;;;;;;;;;1.50;0.50;;;;;12.46;67.58;99609.97;5117430;28;8819;-59
2022/11/03 05:31:04;;;;;;;;;0.00;0.00;;;;;12.44;67.38;99606.56;5116907;28;8917;-59
2022/11/03 05:33:31;;;;;;;;;0.75;0.75;;;;;12.45;68.20;99608.28;5117392;28;8904;-59
2022/11/03 05:36:00;;;;;;;;;0.00;0.00;;;;;12.43;67.86;99599.56;5116981;28;8827;-58
2022/11/03 05:38:28;;;;;;;;;1.00;1.00;;;;;12.42;67.36;99593.38;5117315;28;8933;-59
2022/11/03 05:40:56;;;;;;;;;0.00;0.00;;;;;12.44;67.92;99595.91;5116667;28;8816;-58
2022/11/03 05:43:24;;;;;;;;;0.50;0.00;;;;;12.43;67.77;99595.06;5116446;28;8835;-58
2022/11/03 05:45:51;;;;;;;;;1.50;0.50;;;;;12.43;67.77;99586.19;5116448;28;9561;-59
2022/11/03 05:48:20;;;;;;;;;0.75;0.75;;;;;12.44;67.59;99590.56;5116658;28;8831;-58
2022/11/03 05:50:48;;;;;;;;;0.00;0.00;;;;;12.44;67.59;99593.22;5116675;28;8931;-58
2022/11/03 05:53:15;;;;;;;;;0.50;0.00;;;;;12.46;67.84;99604.63;5116272;28;8824;-59
2022/11/03 05:55:43;;;;;;;;;0.00;0.00;;;;;12.48;67.79;99598.16;5115764;28;8831;-59
2022/11/03 05:58:10;;;;;;;;;1.00;1.00;;;;;12.53;67.80;99592.41;5116117;28;8892;-59
2022/11/03 06:00:39;;;;;;;;;0.00;0.00;;;;;12.56;67.23;99589.44;5116022;28;8893;-59
2022/11/03 06:03:14;;;;;;;;;1.00;1.00;;;;;12.58;67.46;99582.09;5116290;28;8839;-58
2022/11/03 06:05:42;;;;;;;;;0.25;0.00;;;;;12.59;67.32;99578.44;5116479;28;8913;-59
2022/11/03 06:08:10;;;;;;;;;1.00;0.00;;;;;12.61;67.64;99574.66;5116124;28;8909;-58
2022/11/03 06:10:37;;;;;;;;;1.00;0.75;;;;;12.64;67.47;99555.69;5115940;28;8958;-59
2022/11/03 06:13:08;;;;;;;;;1.00;1.00;;;;;12.66;67.57;99564.38;5115767;28;8858;-59
2022/11/03 06:15:37;;;;;;;;;1.00;0.50;;;;;12.67;67.71;99558.06;5115737;28;8816;-59
2022/11/03 06:18:05;;;;;;;;;2.50;2.00;;;;;12.67;67.51;99546.50;5115862;28;8812;-59
2022/11/03 06:20:32;;;;;;;;;1.00;0.75;;;;;12.68;67.12;99550.88;5114559;28;8824;-59
2022/11/03 06:23:00;;;;;;;;;0.00;0.00;;;;;12.69;67.40;99550.72;5115069;28;8836;-59
2022/11/03 06:25:29;;;;;;;;;1.00;1.00;;;;;12.69;67.53;99545.38;5115256;28;8835;-59
2022/11/03 06:27:57;;;;;;;;;0.75;0.75;;;;;12.70;67.44;99546.25;5114075;28;8824;-59
2022/11/03 06:30:25;;;;;;;;;2.00;0.50;;;;;12.71;67.59;99540.75;5113496;28;9536;-59
2022/11/03 06:32:53;;;;;;;;;3.00;1.50;;;;;12.72;67.21;99541.59;5113331;28;8839;-58
2022/11/03 06:35:20;;;;;;;;;0.75;0.00;;;;;12.73;68.01;99537.91;5113744;28;8894;-59
2022/11/03 06:37:49;;;;;;;;;0.50;0.00;;;;;12.75;67.52;99535.97;5113510;28;8836;-59
2022/11/03 06:40:16;;;;;;;;;0.00;0.00;;;;;12.77;67.44;99539.31;5113632;28;8828;-58
2022/11/03 06:42:44;;;;;;;;;1.50;0.00;;;;;12.79;67.94;99537.34;5113182;28;8820;-58
2022/11/03 06:45:12;;;;;;;;;1.00;1.00;;;;;12.81;67.14;99530.00;5112476;28;8900;-59
2022/11/03 06:47:39;;;;;;;;;1.00;1.00;;;;;12.85;67.88;99532.25;5112539;28;8851;-59
2022/11/03 06:50:08;;;;;;;;;0.00;0.00;;;;;12.89;67.50;99530.13;5111159;28;8866;-59
2022/11/03 06:52:36;;;;;;;;;1.00;1.00;;;;;12.91;67.49;99536.19;5111599;28;8840;-58
2022/11/03 06:55:04;;;;;;;;;0.00;0.00;;;;;12.92;66.98;99527.19;5111643;28;8842;-59
2022/11/03 06:57:32;;;;;;;;;0.00;0.00;;;;;12.92;66.80;99519.16;5111640;28;8839;-59
2022/11/03 06:59:59;;;;;;;;;1.00;1.00;;;;;12.94;67.16;99517.16;5112048;28;8947;-59
2022/11/03 07:02:48;;;;;;;;;0.75;0.00;;;;;12.95;67.55;99517.06;5111775;28;8848;-59
2022/11/03 07:05:16;;;;;;;;;0.50;0.50;;;;;12.96;67.46;99501.84;5112745;28;8828;-59
2022/11/03 07:07:44;;;;;;;;;1.00;0.00;;;;;12.97;66.99;99508.88;5111669;28;8867;-57
2022/11/03 07:10:12;;;;;;;;;0.00;0.00;;;;;12.99;67.34;99507.75;5113107;28;8835;-59
2022/11/03 07:12:39;;;;;;;;;0.00;0.00;;;;;13.01;66.71;99505.78;5113010;28;8916;-59
2022/11/03 07:15:08;;;;;;;;;0.50;0.50;;;;;13.01;66.69;99495.09;5113426;28;8866;-58
2022/11/03 07:17:36;;;;;;;;;0.00;0.00;;;;;13.02;67.37;99485.22;5113000;28;8855;-57
2022/11/03 07:20:03;;;;;;;;;2.00;0.50;;;;;13.04;66.87;99469.88;5112971;28;9642;-57
2022/11/03 07:22:31;;;;;;;;;0.00;0.00;;;;;13.06;67.00;99475.94;5112405;28;8823;-59
2022/11/03 07:24:59;;;;;;;;;1.00;1.00;;;;;13.07;66.81;99478.44;5112061;28;8831;-59
2022/11/03 07:27:28;;;;;;;;;0.00;0.00;;;;;13.09;66.82;99476.47;5110994;28;8949;-58
2022/11/03 07:29:56;;;;;;;;;1.00;1.00;;;;;13.11;67.06;99460.28;5110606;28;8890;-58
2022/11/03 07:32:23;;;;;;;;;0.50;0.50;;;;;13.14;67.23;99465.34;5111371;28;8831;-59
2022/11/03 07:34:51;;;;;;;;;1.00;0.00;;;;;13.17;66.82;99473.06;5112918;28;8828;-57
2022/11/03 07:37:19;;;;;;;;;1.00;1.00;;;;;13.19;66.27;99469.25;5113774;28;8832;-59
2022/11/03 07:39:47;;;;;;;;;1.00;1.00;;;;;13.22;66.52;99470.78;5115277;28;8868;-58
2022/11/03 07:42:15;;;;;;;;;0.75;0.75;;;;;13.24;66.75;99471.47;5114847;28;8832;-59
2022/11/03 07:44:43;;;;;;;;;1.00;1.00;;;;;13.25;66.47;99462.44;5115112;28;9482;-57
2022/11/03 07:47:11;;;;;;;;;0.75;0.00;;;;;13.27;66.15;99468.47;5115703;28;8819;-59
2022/11/03 07:49:38;;;;;;;;;1.00;1.00;;;;;13.29;66.17;99463.84;5114811;28;8881;-57
2022/11/03 07:52:06;;;;;;;;;0.75;0.75;;;;;13.30;66.78;99444.94;5115198;28;9540;-59
2022/11/03 07:54:34;;;;;;;;;0.00;0.00;;;;;13.31;66.35;99449.31;5115050;28;8846;-59
2022/11/03 07:57:02;;;;;;;;;1.00;0.00;;;;;13.34;66.39;99442.81;5115955;28;8824;-59
2022/11/03 07:59:30;;;;;;;;;0.75;0.75;;;;;13.36;66.52;99441.66;5116031;28;8828;-59
2022/11/03 08:01:58;;;;;;;;;0.50;0.25;;;;;13.40;65.89;99448.41;5115494;28;8846;-57
2022/11/03 08:04:28;;;;;;;;;0.50;0.50;;;;;13.42;66.27;99448.25;5116184;28;8824;-59
2022/11/03 08:06:56;;;;;;;;;0.00;0.00;;;;;13.42;65.76;99450.91;5116736;28;8835;-59
2022/11/03 08:09:24;;;;;;;;;0.00;0.00;;;;;13.45;66.48;99434.59;5117676;28;8909;-58
2022/11/03 08:11:52;;;;;;;;;3.00;0.25;;;;;13.46;66.31;99430.91;5116060;28;8831;-57
2022/11/03 08:14:20;;;;;;;;;0.25;0.00;;;;;13.47;65.90;99429.91;5116076;28;8881;-59
2022/11/03 08:16:49;;;;;;;;;0.00;0.00;;;;;13.48;66.00;99428.91;5116838;28;8835;-59
2022/11/03 08:19:17;;;;;;;;;0.75;0.75;;;;;13.49;66.20;99426.09;5116855;28;8828;-59
2022/11/03 08:21:44;;;;;;;;;1.00;0.75;;;;;13.52;65.88;99427.63;5116495;28;8851;-58
2022/11/03 08:24:12;;;;;;;;;0.00;0.00;;;;;13.55;65.47;99424.63;5114987;28;8926;-59
2022/11/03 08:26:40;;;;;;;;;0.00;0.00;;;;;13.60;65.27;99423.16;5114044;28;8860;-59
2022/11/03 08:29:08;;;;;;;;;2.50;2.50;;;;;13.67;65.59;99423.41;5113653;28;8823;-58
2022/11/03 08:31:36;;;;;;;;;1.00;1.00;;;;;13.75;65.08;99410.94;5113611;28;8845;-58
2022/11/03 08:34:04;;;;;;;;;1.00;0.50;;;;;13.84;64.97;99406.50;5113608;28;8836;-59
2022/11/03 08:36:32;;;;;;;;;0.00;0.00;;;;;13.95;64.56;99398.19;5113229;28;8914;-59
2022/11/03 08:39:00;;;;;;;;;0.00;0.00;;;;;14.05;64.89;99383.72;5114328;28;8998;-59
2022/11/03 08:41:28;;;;;;;;;2.50;1.00;;;;;14.15;64.72;99395.19;5114778;28;8834;-58
2022/11/03 08:43:56;;;;;;;;;2.00;1.00;;;;;14.23;64.15;99386.38;5113924;28;8827;-59
2022/11/03 08:46:24;;;;;;;;;0.00;0.00;;;;;14.31;64.18;99378.38;5115409;28;8836;-59
2022/11/03 08:48:52;;;;;;;;;1.00;1.00;;;;;14.37;63.53;99383.09;5115207;28;8912;-59
2022/11/03 08:51:20;;;;;;;;;1.00;1.00;;;;;14.41;63.61;99389.84;5114850;28;8842;-59
2022/11/03 08:53:52;;;;;;;;;1.50;1.00;;;;;14.45;63.29;99393.88;5114764;28;8852;-58
2022/11/03 08:56:20;;;;;;;;;0.50;0.50;;;;;14.47;63.95;99403.44;5114778;28;8901;-59
2022/11/03 08:58:49;;;;;;;;;1.00;1.00;;;;;14.51;63.69;99398.59;5115400;28;8819;-59
2022/11/03 09:01:17;;;;;;;;;2.50;1.00;;;;;14.53;63.66;99396.56;5115559;28;9493;-58
2022/11/03 09:03:44;;;;;;;;;0.00;0.00;;;;;14.56;63.75;99381.03;5115496;28;8863;-59
2022/11/03 09:06:12;;;;;;;;;2.33;2.33;;;;;14.59;63.64;99385.22;5114621;28;8844;-59
2022/11/03 09:08:41;;;;;;;;;0.00;0.00;;;;;14.63;63.40;99381.25;5115305;28;8998;-58
2022/11/03 09:11:28;;;;;;;;;0.00;0.00;;;;;14.69;63.40;99376.06;5115188;28;8851;-59
2022/11/03 09:13:56;;;;;;;;;1.00;1.00;;;;;14.76;63.18;99376.25;5115292;28;8839;-59
2022/11/03 09:16:25;;;;;;;;;2.00;1.00;;;;;14.80;63.13;99361.53;5114791;28;8823;-59
2022/11/03 09:18:53;;;;;;;;;1.00;1.00;;;;;14.83;62.63;99356.69;5113604;28;8828;-59
2022/11/03 09:21:21;;;;;;;;;2.25;0.00;;;;;14.88;62.53;99346.28;5112946;28;8840;-60
2022/11/03 09:23:49;;;;;;;;;0.00;0.00;;;;;14.92;62.88;99355.69;5113051;28;8844;-59
2022/11/03 09:26:16;;;;;;;;;1.00;1.00;;;;;14.98;62.16;99343.47;5112514;28;8832;-59
2022/11/03 09:28:48;;;;;;;;;0.00;0.00;;;;;15.04;62.34;99335.63;5112132;28;8847;-59
2022/11/03 09:31:16;;;;;;;;;0.50;0.50;;;;;15.12;61.53;99332.09;5111353;28;9513;-59
2022/11/03 09:33:44;;;;;;;;;0.25;0.25;;;;;15.20;62.14;99326.75;5111093;28;8851;-58
2022/11/03 09:36:12;;;;;;;;;1.00;1.00;;;;;15.28;61.51;99318.69;5111841;28;8840;-59
2022/11/03 09:38:39;;;;;;;;;0.50;0.50;;;;;15.36;60.55;99321.41;5111271;28;8851;-59
2022/11/03 09:41:07;;;;;;;;;3.00;3.00;;;;;15.44;60.58;99316.91;5110509;28;8858;-59
2022/11/03 09:43:53;;;;;;;;;1.00;1.00;;;;;15.55;60.60;99305.00;5111555;28;8823;-59
2022/11/03 09:46:21;;;;;;;;;0.00;0.00;;;;;15.73;59.42;99306.47;5112099;28;8843;-59
2022/11/03 09:48:49;;;;;;;;;0.20;0.20;;;;;15.85;59.06;99297.03;5112712;28;8847;-59
2022/11/03 09:51:17;;;;;;;;;1.00;1.00;;;;;15.89;59.81;99281.44;5113089;28;8916;-59
2022/11/03 09:53:45;;;;;;;;;0.00;0.00;;;;;15.90;59.10;99277.72;5112454;28;8828;-59
2022/11/03 09:56:13;;;;;;;;;1.00;1.00;;;;;15.89;59.09;99268.00;5112169;28;8890;-59
2022/11/03 09:58:41;;;;;;;;;0.00;0.00;;;;;15.89;59.10;99259.94;5113330;28;8854;-59
2022/11/03 10:01:09;;;;;;;;;0.60;0.20;;;;;15.90;59.37;99253.56;5113616;28;8859;-59
2022/11/03 10:03:39;;;;;;;;;1.00;1.00;;;;;15.91;59.01;99250.72;5112676;28;8815;-59
2022/11/03 10:06:07;;;;;;;;;3.00;1.00;;;;;15.93;59.36;99250.56;5112819;28;9608;-59
2022/11/03 10:08:41;;;;;;;;;0.00;0.00;;;;;15.90;59.28;99243.69;5112341;28;8859;-59
2022/11/03 10:11:09;;;;;;;;;1.00;0.60;;;;;15.89;58.52;99241.16;5112840;28;8878;-59
2022/11/03 10:13:38;;;;;;;;;2.00;1.40;;;;;15.92;58.70;99243.50;5112547;28;8851;-59
2022/11/03 10:16:06;;;;;;;;;0.20;0.20;;;;;15.99;58.72;99233.75;5112209;28;8954;-59
2022/11/03 10:18:34;;;;;;;;;1.00;1.00;;;;;16.02;58.44;99238.75;5113737;28;8831;-59
2022/11/03 10:21:02;;;;;;;;;0.20;0.00;;;;;16.07;58.47;99228.34;5113465;28;8828;-57
2022/11/03 10:23:29;;;;;;;;;0.00;0.00;;;;;16.13;58.05;99227.63;5112971;28;8819;-59
2022/11/03 10:25:58;;;;;;;;;0.60;0.60;;;;;16.17;58.13;99232.50;5113619;28;8832;-57
2022/11/03 10:28:27;;;;;;;;;1.00;1.00;;;;;16.19;58.41;99236.66;5113713;28;8892;-59
2022/11/03 10:30:55;;;;;;;;;0.60;0.60;;;;;16.19;58.30;99233.16;5114178;28;8955;-58
2022/11/03 10:33:39;;;;;;;;;0.40;0.40;;;;;16.17;58.33;99230.63;5113211;28;9126;-59
2022/11/03 10:36:07;;;;;;;;;1.00;1.00;;;;;16.12;58.69;99226.81;5112857;28;8962;-59
2022/11/03 10:38:35;;;;;;;;;2.60;1.00;;;;;16.10;58.84;99203.81;5113023;28;8844;-59
2022/11/03 10:41:03;;;;;;;;;1.00;1.00;;;;;16.08;58.91;99197.78;5111413;28;9048;-59
2022/11/03 10:43:31;;;;;;;;;0.00;0.00;;;;;16.04;58.15;99178.50;5110265;28;8820;-59
2022/11/03 10:45:59;;;;;;;;;0.00;0.00;;;;;16.03;58.65;99160.72;5109841;28;9200;-59
2022/11/03 10:48:28;;;;;;;;;0.80;0.80;;;;;16.04;58.88;99142.72;5109073;28;8839;-59
2022/11/03 10:50:56;;;;;;;;;0.80;0.80;;;;;16.05;58.37;99139.88;5110247;28;8919;-59
2022/11/03 10:53:24;;;;;;;;;0.00;0.00;;;;;16.03;58.89;99135.69;5110494;28;8870;-59
2022/11/03 10:55:57;;;;;;;;;1.40;1.40;;;;;16.04;58.69;99145.41;5111750;28;8824;-59
2022/11/03 10:58:25;;;;;;;;;0.00;0.00;;;;;16.05;58.49;99141.72;5113689;28;8827;-59
2022/11/03 11:00:54;;;;;;;;;0.60;0.20;;;;;16.05;58.83;99136.34;5101702;28;8834;-59
2022/11/03 11:03:22;;;;;;;;;0.40;0.40;;;;;16.06;58.29;99128.13;5094201;28;8833;-58
2022/11/03 11:05:50;;;;;;;;;0.00;0.00;;;;;16.07;58.93;99118.22;5093664;28;9547;-59
2022/11/03 11:08:18;;;;;;;;;0.00;0.00;;;;;16.08;58.73;99114.50;5098633;28;9511;-58
2022/11/03 11:10:46;;;;;;;;;0.40;0.00;;;;;16.08;58.28;99114.50;5099259;28;8829;-59
2022/11/03 11:13:16;;;;;;;;;3.40;3.40;;;;;16.08;58.22;99130.63;5099364;28;8902;-57
2022/11/03 11:15:44;;;;;;;;;0.20;0.00;;;;;16.06;58.54;99133.47;5100109;28;8846;-59
2022/11/03 11:18:13;;;;;;;;;0.40;0.20;;;;;16.04;58.15;99108.66;5098526;28;8837;-59
2022/11/03 11:20:41;;;;;;;;;0.00;0.00;;;;;16.05;58.23;99107.63;5098521;28;8964;-59
2022/11/03 11:23:09;;;;;;;;;0.00;0.00;;;;;16.06;58.11;99089.66;5099362;28;8849;-59
2022/11/03 11:25:39;;;;;;;;;0.40;0.40;;;;;16.07;58.32;99092.19;5099660;28;8838;-59
2022/11/03 11:28:07;;;;;;;;;1.00;0.80;;;;;16.06;58.25;99068.16;5099974;28;8842;-59
2022/11/03 11:30:35;;;;;;;;;0.00;0.00;;;;;16.03;58.62;99049.75;5106254;28;8812;-59
2022/11/03 11:33:03;;;;;;;;;0.00;0.00;;;;;16.00;58.31;99047.41;5118356;28;8828;-57
2022/11/03 11:35:31;;;;;;;;;2.60;1.00;;;;;15.97;58.57;99045.91;5117529;28;8852;-59
2022/11/03 11:38:01;;;;;;;;;0.00;0.00;;;;;15.95;58.70;99039.06;5117463;28;8860;-59
2022/11/03 11:40:29;;;;;;;;;0.40;0.40;;;;;15.95;58.53;99031.00;5117785;28;8831;-59
2022/11/03 11:42:57;;;;;;;;;0.20;0.20;;;;;15.95;58.39;99029.16;5117894;28;8836;-60
2022/11/03 11:45:25;;;;;;;;;0.20;0.20;;;;;15.98;57.98;99017.19;5116314;28;8836;-59
2022/11/03 11:47:53;;;;;;;;;1.00;1.00;;;;;16.06;58.00;99017.13;5118012;28;8846;-59
2022/11/03 11:50:21;;;;;;;;;0.00;0.00;;;;;16.15;58.10;99016.09;5118228;28;8835;-59
2022/11/03 11:52:49;;;;;;;;;0.00;0.00;;;;;16.28;57.61;99023.38;5118791;28;8835;-59
2022/11/03 11:55:17;;;;;;;;;0.00;0.00;;;;;16.42;57.52;99001.09;5117729;28;8858;-59
2022/11/03 11:57:45;;;;;;;;;0.00;0.00;;;;;16.57;56.88;98977.75;5117764;28;8978;-57
2022/11/03 12:00:13;;;;;;;;;0.20;0.00;;;;;16.74;56.60;98981.97;5117075;28;9490;-59
2022/11/03 12:02:43;;;;;;;;;0.80;0.20;;;;;16.92;56.00;98974.34;5117568;28;8834;-59